sensor_id;sensor_type;location;lat;lon;timestamp;P1;durP1;ratioP1;P2;durP2;ratioP2
67108;SDS011;54027;50.786;7.058;2023-08-30T00:01:41;9.07;;;6.75;;
67108;SDS011;54027;50.786;7.058;2023-08-30T00:04:06;7.43;;;5.93;;
67108;SDS011;54027;50.786;7.058;2023-08-30T00:06:31;8.70;;;6.25;;
67108;SDS011;54027;50.786;7.058;2023-08-30T00:08:57;8.05;;;6.10;;
67108;SDS011;54027;50.786;7.058;2023-08-30T00:11:23;9.70;;;6.90;;
67108;SDS011;54027;50.786;7.058;2023-08-30T00:13:49;8.40;;;6.22;;
67108;SDS011;54027;50.786;7.058;2023-08-30T00:16:14;6.75;;;5.68;;
67108;SDS011;54027;50.786;7.058;2023-08-30T00:18:41;9.10;;;5.47;;
67108;SDS011;54027;50.786;7.058;2023-08-30T00:21:07;8.43;;;7.53;;
67108;SDS011;54027;50.786;7.058;2023-08-30T00:23:32;7.05;;;6.10;;
67108;SDS011;54027;50.786;7.058;2023-08-30T00:25:58;8.20;;;6.05;;
67108;SDS011;54027;50.786;7.058;2023-08-30T00:28:23;10.60;;;6.70;;
67108;SDS011;54027;50.786;7.058;2023-08-30T00:30:55;8.20;;;6.10;;
67108;SDS011;54027;50.786;7.058;2023-08-30T00:33:20;10.35;;;7.22;;
67108;SDS011;54027;50.786;7.058;2023-08-30T00:35:46;6.20;;;5.60;;
67108;SDS011;54027;50.786;7.058;2023-08-30T00:38:11;6.45;;;5.20;;
67108;SDS011;54027;50.786;7.058;2023-08-30T00:40:39;7.18;;;5.80;;
67108;SDS011;54027;50.786;7.058;2023-08-30T00:43:06;7.60;;;6.45;;
67108;SDS011;54027;50.786;7.058;2023-08-30T00:45:33;6.20;;;5.60;;
67108;SDS011;54027;50.786;7.058;2023-08-30T00:47:59;10.45;;;6.90;;
67108;SDS011;54027;50.786;7.058;2023-08-30T00:50:25;8.25;;;6.63;;
67108;SDS011;54027;50.786;7.058;2023-08-30T00:52:50;9.25;;;6.30;;
67108;SDS011;54027;50.786;7.058;2023-08-30T00:55:16;6.82;;;6.13;;
67108;SDS011;54027;50.786;7.058;2023-08-30T00:57:41;9.63;;;6.45;;
67108;SDS011;54027;50.786;7.058;2023-08-30T01:00:08;7.50;;;5.85;;
67108;SDS011;54027;50.786;7.058;2023-08-30T01:02:34;6.70;;;5.22;;
67108;SDS011;54027;50.786;7.058;2023-08-30T01:04:59;8.18;;;5.80;;
67108;SDS011;54027;50.786;7.058;2023-08-30T01:07:25;6.15;;;5.18;;
67108;SDS011;54027;50.786;7.058;2023-08-30T01:09:52;6.95;;;5.40;;
67108;SDS011;54027;50.786;7.058;2023-08-30T01:12:22;8.80;;;5.70;;
67108;SDS011;54027;50.786;7.058;2023-08-30T01:14:52;7.72;;;5.82;;
67108;SDS011;54027;50.786;7.058;2023-08-30T01:17:42;7.80;;;5.32;;
67108;SDS011;54027;50.786;7.058;2023-08-30T01:20:10;6.40;;;4.40;;
67108;SDS011;54027;50.786;7.058;2023-08-30T01:25:55;6.65;;;5.15;;
67108;SDS011;54027;50.786;7.058;2023-08-30T01:28:29;8.50;;;5.07;;
67108;SDS011;54027;50.786;7.058;2023-08-30T01:30:58;6.78;;;5.40;;
67108;SDS011;54027;50.786;7.058;2023-08-30T01:33:25;5.50;;;4.88;;
67108;SDS011;54027;50.786;7.058;2023-08-30T01:35:56;6.72;;;5.50;;
67108;SDS011;54027;50.786;7.058;2023-08-30T01:38:23;7.90;;;4.43;;
67108;SDS011;54027;50.786;7.058;2023-08-30T01:40:51;8.32;;;5.15;;
67108;SDS011;54027;50.786;7.058;2023-08-30T01:43:18;8.27;;;5.68;;
67108;SDS011;54027;50.786;7.058;2023-08-30T01:45:46;7.05;;;5.60;;
67108;SDS011;54027;50.786;7.058;2023-08-30T01:48:12;5.95;;;5.30;;
67108;SDS011;54027;50.786;7.058;2023-08-30T01:50:40;8.75;;;5.95;;
67108;SDS011;54027;50.786;7.058;2023-08-30T01:53:07;6.60;;;4.50;;
67108;SDS011;54027;50.786;7.058;2023-08-30T01:55:35;6.72;;;5.20;;
67108;SDS011;54027;50.786;7.058;2023-08-30T01:58:02;7.63;;;5.80;;
67108;SDS011;54027;50.786;7.058;2023-08-30T02:00:28;6.13;;;5.18;;
67108;SDS011;54027;50.786;7.058;2023-08-30T02:02:55;6.75;;;5.85;;
67108;SDS011;54027;50.786;7.058;2023-08-30T02:05:21;6.43;;;5.07;;
67108;SDS011;54027;50.786;7.058;2023-08-30T02:08:05;6.97;;;5.00;;
67108;SDS011;54027;50.786;7.058;2023-08-30T02:10:39;7.07;;;5.63;;
67108;SDS011;54027;50.786;7.058;2023-08-30T02:13:09;7.22;;;5.43;;
67108;SDS011;54027;50.786;7.058;2023-08-30T02:15:36;6.60;;;5.32;;
67108;SDS011;54027;50.786;7.058;2023-08-30T02:18:03;8.57;;;7.03;;
67108;SDS011;54027;50.786;7.058;2023-08-30T02:20:30;6.38;;;5.03;;
67108;SDS011;54027;50.786;7.058;2023-08-30T02:22:59;7.18;;;5.30;;
67108;SDS011;54027;50.786;7.058;2023-08-30T02:25:25;4.85;;;4.35;;
67108;SDS011;54027;50.786;7.058;2023-08-30T02:27:50;6.45;;;5.35;;
67108;SDS011;54027;50.786;7.058;2023-08-30T02:30:16;7.18;;;4.32;;
67108;SDS011;54027;50.786;7.058;2023-08-30T02:32:41;5.68;;;4.32;;
67108;SDS011;54027;50.786;7.058;2023-08-30T02:35:07;6.38;;;4.65;;
67108;SDS011;54027;50.786;7.058;2023-08-30T02:37:32;4.93;;;4.18;;
67108;SDS011;54027;50.786;7.058;2023-08-30T02:39:58;8.68;;;4.55;;
67108;SDS011;54027;50.786;7.058;2023-08-30T02:42:23;8.38;;;4.90;;
67108;SDS011;54027;50.786;7.058;2023-08-30T02:44:51;6.38;;;5.13;;
67108;SDS011;54027;50.786;7.058;2023-08-30T02:47:16;8.00;;;5.18;;
67108;SDS011;54027;50.786;7.058;2023-08-30T02:49:42;5.32;;;4.53;;
67108;SDS011;54027;50.786;7.058;2023-08-30T02:52:07;5.85;;;4.70;;
67108;SDS011;54027;50.786;7.058;2023-08-30T02:54:32;7.30;;;5.47;;
67108;SDS011;54027;50.786;7.058;2023-08-30T02:56:58;6.68;;;4.57;;
67108;SDS011;54027;50.786;7.058;2023-08-30T02:59:23;5.15;;;4.20;;
67108;SDS011;54027;50.786;7.058;2023-08-30T03:01:48;5.18;;;4.35;;
67108;SDS011;54027;50.786;7.058;2023-08-30T03:04:14;7.28;;;4.20;;
67108;SDS011;54027;50.786;7.058;2023-08-30T03:06:39;7.22;;;5.35;;
67108;SDS011;54027;50.786;7.058;2023-08-30T03:09:04;8.18;;;5.30;;
67108;SDS011;54027;50.786;7.058;2023-08-30T03:11:31;7.13;;;4.20;;
67108;SDS011;54027;50.786;7.058;2023-08-30T03:13:57;7.03;;;4.18;;
67108;SDS011;54027;50.786;7.058;2023-08-30T03:16:22;4.38;;;3.97;;
67108;SDS011;54027;50.786;7.058;2023-08-30T03:18:48;5.80;;;4.57;;
67108;SDS011;54027;50.786;7.058;2023-08-30T03:21:13;6.63;;;4.82;;
67108;SDS011;54027;50.786;7.058;2023-08-30T03:23:39;5.32;;;4.45;;
67108;SDS011;54027;50.786;7.058;2023-08-30T03:28:38;5.90;;;4.72;;
67108;SDS011;54027;50.786;7.058;2023-08-30T03:31:17;7.88;;;5.00;;
67108;SDS011;54027;50.786;7.058;2023-08-30T03:33:43;6.75;;;5.30;;
67108;SDS011;54027;50.786;7.058;2023-08-30T03:36:10;8.35;;;4.85;;
67108;SDS011;54027;50.786;7.058;2023-08-30T03:38:36;6.85;;;4.72;;
67108;SDS011;54027;50.786;7.058;2023-08-30T03:41:02;10.05;;;5.25;;
67108;SDS011;54027;50.786;7.058;2023-08-30T03:43:29;5.93;;;4.68;;
67108;SDS011;54027;50.786;7.058;2023-08-30T03:45:54;5.60;;;4.55;;
67108;SDS011;54027;50.786;7.058;2023-08-30T03:48:20;5.25;;;4.63;;
67108;SDS011;54027;50.786;7.058;2023-08-30T03:50:45;4.88;;;4.38;;
67108;SDS011;54027;50.786;7.058;2023-08-30T03:53:10;6.10;;;4.53;;
67108;SDS011;54027;50.786;7.058;2023-08-30T03:55:36;4.88;;;4.32;;
67108;SDS011;54027;50.786;7.058;2023-08-30T03:58:01;5.80;;;5.00;;
67108;SDS011;54027;50.786;7.058;2023-08-30T04:00:26;7.80;;;5.13;;
67108;SDS011;54027;50.786;7.058;2023-08-30T04:02:52;5.97;;;4.07;;
67108;SDS011;54027;50.786;7.058;2023-08-30T04:05:17;7.40;;;5.45;;
67108;SDS011;54027;50.786;7.058;2023-08-30T04:07:42;6.82;;;6.00;;
67108;SDS011;54027;50.786;7.058;2023-08-30T04:10:08;7.35;;;5.78;;
67108;SDS011;54027;50.786;7.058;2023-08-30T04:12:34;6.47;;;5.15;;
67108;SDS011;54027;50.786;7.058;2023-08-30T04:15:00;8.25;;;5.80;;
67108;SDS011;54027;50.786;7.058;2023-08-30T04:17:26;6.68;;;5.82;;
67108;SDS011;54027;50.786;7.058;2023-08-30T04:19:52;10.55;;;6.93;;
67108;SDS011;54027;50.786;7.058;2023-08-30T04:22:18;8.20;;;6.90;;
67108;SDS011;54027;50.786;7.058;2023-08-30T04:24:43;9.73;;;7.70;;
67108;SDS011;54027;50.786;7.058;2023-08-30T04:27:09;11.88;;;7.57;;
67108;SDS011;54027;50.786;7.058;2023-08-30T04:29:34;8.10;;;7.30;;
67108;SDS011;54027;50.786;7.058;2023-08-30T04:32:00;10.15;;;7.50;;
67108;SDS011;54027;50.786;7.058;2023-08-30T04:34:25;9.57;;;8.13;;
67108;SDS011;54027;50.786;7.058;2023-08-30T04:36:51;8.35;;;7.40;;
67108;SDS011;54027;50.786;7.058;2023-08-30T04:39:16;9.32;;;7.65;;
67108;SDS011;54027;50.786;7.058;2023-08-30T04:41:42;9.73;;;7.50;;
67108;SDS011;54027;50.786;7.058;2023-08-30T04:44:07;11.48;;;7.97;;
67108;SDS011;54027;50.786;7.058;2023-08-30T04:46:32;12.48;;;8.20;;
67108;SDS011;54027;50.786;7.058;2023-08-30T04:48:58;11.07;;;8.07;;
67108;SDS011;54027;50.786;7.058;2023-08-30T04:51:23;9.52;;;7.82;;
67108;SDS011;54027;50.786;7.058;2023-08-30T04:53:48;12.60;;;8.02;;
67108;SDS011;54027;50.786;7.058;2023-08-30T04:56:14;9.50;;;7.80;;
67108;SDS011;54027;50.786;7.058;2023-08-30T04:58:40;9.13;;;7.50;;
67108;SDS011;54027;50.786;7.058;2023-08-30T05:01:06;12.23;;;8.77;;
67108;SDS011;54027;50.786;7.058;2023-08-30T05:03:32;11.55;;;7.95;;
67108;SDS011;54027;50.786;7.058;2023-08-30T05:05:57;8.90;;;7.28;;
67108;SDS011;54027;50.786;7.058;2023-08-30T05:08:23;12.65;;;8.05;;
67108;SDS011;54027;50.786;7.058;2023-08-30T05:10:48;12.15;;;8.85;;
67108;SDS011;54027;50.786;7.058;2023-08-30T05:13:15;10.93;;;8.57;;
67108;SDS011;54027;50.786;7.058;2023-08-30T05:15:41;14.10;;;8.00;;
67108;SDS011;54027;50.786;7.058;2023-08-30T05:18:07;13.60;;;8.23;;
67108;SDS011;54027;50.786;7.058;2023-08-30T05:20:32;13.05;;;7.55;;
67108;SDS011;54027;50.786;7.058;2023-08-30T05:22:58;13.88;;;8.80;;
67108;SDS011;54027;50.786;7.058;2023-08-30T05:25:23;14.40;;;7.95;;
67108;SDS011;54027;50.786;7.058;2023-08-30T05:27:48;10.00;;;7.53;;
67108;SDS011;54027;50.786;7.058;2023-08-30T05:30:14;13.43;;;8.23;;
67108;SDS011;54027;50.786;7.058;2023-08-30T05:32:40;14.77;;;8.30;;
67108;SDS011;54027;50.786;7.058;2023-08-30T05:35:05;13.63;;;8.43;;
67108;SDS011;54027;50.786;7.058;2023-08-30T05:37:31;14.77;;;8.93;;
67108;SDS011;54027;50.786;7.058;2023-08-30T05:39:57;12.38;;;9.23;;
67108;SDS011;54027;50.786;7.058;2023-08-30T05:42:22;12.18;;;8.65;;
67108;SDS011;54027;50.786;7.058;2023-08-30T05:44:48;15.02;;;9.70;;
67108;SDS011;54027;50.786;7.058;2023-08-30T05:47:13;14.75;;;8.60;;
67108;SDS011;54027;50.786;7.058;2023-08-30T05:49:40;11.98;;;9.02;;
67108;SDS011;54027;50.786;7.058;2023-08-30T05:52:06;10.05;;;8.57;;
67108;SDS011;54027;50.786;7.058;2023-08-30T05:54:31;12.93;;;8.98;;
67108;SDS011;54027;50.786;7.058;2023-08-30T05:56:58;12.43;;;8.48;;
67108;SDS011;54027;50.786;7.058;2023-08-30T05:59:24;16.52;;;9.40;;
67108;SDS011;54027;50.786;7.058;2023-08-30T06:01:49;10.52;;;7.78;;
67108;SDS011;54027;50.786;7.058;2023-08-30T06:04:15;11.65;;;8.40;;
67108;SDS011;54027;50.786;7.058;2023-08-30T06:06:40;10.75;;;8.23;;
67108;SDS011;54027;50.786;7.058;2023-08-30T06:09:05;10.77;;;7.00;;
67108;SDS011;54027;50.786;7.058;2023-08-30T06:11:32;11.82;;;7.63;;
67108;SDS011;54027;50.786;7.058;2023-08-30T06:13:57;12.13;;;8.77;;
67108;SDS011;54027;50.786;7.058;2023-08-30T06:16:24;13.30;;;8.07;;
67108;SDS011;54027;50.786;7.058;2023-08-30T06:18:50;12.05;;;9.07;;
67108;SDS011;54027;50.786;7.058;2023-08-30T06:21:15;15.20;;;9.50;;
67108;SDS011;54027;50.786;7.058;2023-08-30T06:23:41;16.20;;;9.38;;
67108;SDS011;54027;50.786;7.058;2023-08-30T06:26:06;13.38;;;9.38;;
67108;SDS011;54027;50.786;7.058;2023-08-30T06:28:32;13.73;;;9.77;;
67108;SDS011;54027;50.786;7.058;2023-08-30T06:30:57;13.98;;;8.82;;
67108;SDS011;54027;50.786;7.058;2023-08-30T06:33:23;13.30;;;8.27;;
67108;SDS011;54027;50.786;7.058;2023-08-30T06:35:49;18.40;;;9.07;;
67108;SDS011;54027;50.786;7.058;2023-08-30T06:38:18;12.98;;;8.13;;
67108;SDS011;54027;50.786;7.058;2023-08-30T06:40:45;15.50;;;8.68;;
67108;SDS011;54027;50.786;7.058;2023-08-30T06:43:11;12.90;;;8.57;;
67108;SDS011;54027;50.786;7.058;2023-08-30T06:45:37;20.30;;;8.82;;
67108;SDS011;54027;50.786;7.058;2023-08-30T06:48:03;10.00;;;8.43;;
67108;SDS011;54027;50.786;7.058;2023-08-30T06:50:29;10.63;;;8.32;;
67108;SDS011;54027;50.786;7.058;2023-08-30T06:52:55;12.38;;;8.93;;
67108;SDS011;54027;50.786;7.058;2023-08-30T06:55:21;18.17;;;10.38;;
67108;SDS011;54027;50.786;7.058;2023-08-30T06:57:47;13.88;;;9.25;;
67108;SDS011;54027;50.786;7.058;2023-08-30T07:00:13;13.20;;;9.40;;
67108;SDS011;54027;50.786;7.058;2023-08-30T07:02:39;14.00;;;8.40;;
67108;SDS011;54027;50.786;7.058;2023-08-30T07:05:05;13.10;;;7.15;;
67108;SDS011;54027;50.786;7.058;2023-08-30T07:07:31;10.70;;;7.28;;
67108;SDS011;54027;50.786;7.058;2023-08-30T07:09:57;9.95;;;6.50;;
67108;SDS011;54027;50.786;7.058;2023-08-30T07:12:22;9.73;;;7.03;;
67108;SDS011;54027;50.786;7.058;2023-08-30T07:14:47;11.55;;;7.55;;
67108;SDS011;54027;50.786;7.058;2023-08-30T07:17:13;10.93;;;6.93;;
67108;SDS011;54027;50.786;7.058;2023-08-30T07:19:38;9.82;;;6.70;;
67108;SDS011;54027;50.786;7.058;2023-08-30T07:22:04;11.30;;;7.28;;
67108;SDS011;54027;50.786;7.058;2023-08-30T07:24:29;8.43;;;7.30;;
67108;SDS011;54027;50.786;7.058;2023-08-30T07:26:55;10.48;;;6.75;;
67108;SDS011;54027;50.786;7.058;2023-08-30T07:29:20;11.32;;;6.68;;
67108;SDS011;54027;50.786;7.058;2023-08-30T07:31:46;10.20;;;7.00;;
67108;SDS011;54027;50.786;7.058;2023-08-30T07:34:12;10.52;;;6.18;;
67108;SDS011;54027;50.786;7.058;2023-08-30T07:36:37;10.95;;;6.20;;
67108;SDS011;54027;50.786;7.058;2023-08-30T07:39:03;7.25;;;5.13;;
67108;SDS011;54027;50.786;7.058;2023-08-30T07:41:28;7.57;;;5.30;;
67108;SDS011;54027;50.786;7.058;2023-08-30T07:43:54;7.15;;;5.38;;
67108;SDS011;54027;50.786;7.058;2023-08-30T07:46:19;7.38;;;5.20;;
67108;SDS011;54027;50.786;7.058;2023-08-30T07:48:45;7.70;;;5.38;;
67108;SDS011;54027;50.786;7.058;2023-08-30T07:51:10;5.93;;;4.68;;
67108;SDS011;54027;50.786;7.058;2023-08-30T07:53:35;8.57;;;5.40;;
67108;SDS011;54027;50.786;7.058;2023-08-30T07:56:01;9.20;;;4.28;;
67108;SDS011;54027;50.786;7.058;2023-08-30T07:58:26;5.63;;;3.58;;
67108;SDS011;54027;50.786;7.058;2023-08-30T08:00:52;7.20;;;3.95;;
67108;SDS011;54027;50.786;7.058;2023-08-30T08:03:18;6.65;;;4.00;;
67108;SDS011;54027;50.786;7.058;2023-08-30T08:05:44;6.90;;;3.58;;
67108;SDS011;54027;50.786;7.058;2023-08-30T08:08:09;6.65;;;3.80;;
67108;SDS011;54027;50.786;7.058;2023-08-30T08:10:36;5.32;;;3.53;;
67108;SDS011;54027;50.786;7.058;2023-08-30T08:13:01;6.15;;;3.45;;
67108;SDS011;54027;50.786;7.058;2023-08-30T08:15:29;6.50;;;3.40;;
67108;SDS011;54027;50.786;7.058;2023-08-30T08:17:56;5.75;;;3.28;;
67108;SDS011;54027;50.786;7.058;2023-08-30T08:20:21;5.38;;;2.90;;
67108;SDS011;54027;50.786;7.058;2023-08-30T08:22:47;5.25;;;2.88;;
67108;SDS011;54027;50.786;7.058;2023-08-30T08:25:13;5.13;;;2.85;;
67108;SDS011;54027;50.786;7.058;2023-08-30T08:27:38;5.75;;;3.10;;
67108;SDS011;54027;50.786;7.058;2023-08-30T08:30:04;6.57;;;3.38;;
67108;SDS011;54027;50.786;7.058;2023-08-30T08:32:30;3.35;;;2.58;;
67108;SDS011;54027;50.786;7.058;2023-08-30T08:34:56;5.68;;;2.72;;
67108;SDS011;54027;50.786;7.058;2023-08-30T08:37:22;6.50;;;3.13;;
67108;SDS011;54027;50.786;7.058;2023-08-30T08:39:47;6.57;;;2.88;;
67108;SDS011;54027;50.786;7.058;2023-08-30T08:42:17;3.38;;;2.10;;
67108;SDS011;54027;50.786;7.058;2023-08-30T08:44:44;6.15;;;2.65;;
67108;SDS011;54027;50.786;7.058;2023-08-30T08:47:11;6.50;;;2.88;;
67108;SDS011;54027;50.786;7.058;2023-08-30T08:49:37;3.70;;;2.20;;
67108;SDS011;54027;50.786;7.058;2023-08-30T08:52:03;4.18;;;2.50;;
67108;SDS011;54027;50.786;7.058;2023-08-30T08:54:29;5.80;;;2.72;;
67108;SDS011;54027;50.786;7.058;2023-08-30T08:56:55;3.83;;;2.70;;
67108;SDS011;54027;50.786;7.058;2023-08-30T08:59:22;5.00;;;2.45;;
67108;SDS011;54027;50.786;7.058;2023-08-30T09:01:49;4.55;;;2.63;;
67108;SDS011;54027;50.786;7.058;2023-08-30T09:04:14;4.75;;;2.60;;
67108;SDS011;54027;50.786;7.058;2023-08-30T09:06:40;4.65;;;2.45;;
67108;SDS011;54027;50.786;7.058;2023-08-30T09:09:06;5.25;;;2.58;;
67108;SDS011;54027;50.786;7.058;2023-08-30T09:11:33;4.63;;;2.65;;
67108;SDS011;54027;50.786;7.058;2023-08-30T09:13:59;4.43;;;2.42;;
67108;SDS011;54027;50.786;7.058;2023-08-30T09:16:24;5.03;;;2.65;;
67108;SDS011;54027;50.786;7.058;2023-08-30T09:18:59;6.75;;;2.63;;
67108;SDS011;54027;50.786;7.058;2023-08-30T09:21:28;3.33;;;2.30;;
67108;SDS011;54027;50.786;7.058;2023-08-30T09:23:58;7.43;;;2.72;;
67108;SDS011;54027;50.786;7.058;2023-08-30T09:26:28;4.35;;;2.10;;
67108;SDS011;54027;50.786;7.058;2023-08-30T09:29:00;5.38;;;2.90;;
67108;SDS011;54027;50.786;7.058;2023-08-30T09:31:36;5.07;;;2.72;;
67108;SDS011;54027;50.786;7.058;2023-08-30T09:34:03;4.85;;;2.53;;
67108;SDS011;54027;50.786;7.058;2023-08-30T09:36:41;4.68;;;2.45;;
67108;SDS011;54027;50.786;7.058;2023-08-30T09:39:08;5.05;;;2.55;;
67108;SDS011;54027;50.786;7.058;2023-08-30T09:41:41;5.00;;;2.90;;
67108;SDS011;54027;50.786;7.058;2023-08-30T09:44:13;5.32;;;3.20;;
67108;SDS011;54027;50.786;7.058;2023-08-30T09:46:44;6.93;;;2.75;;
67108;SDS011;54027;50.786;7.058;2023-08-30T09:49:20;4.38;;;2.63;;
67108;SDS011;54027;50.786;7.058;2023-08-30T09:51:47;5.35;;;2.85;;
67108;SDS011;54027;50.786;7.058;2023-08-30T09:54:14;3.63;;;2.60;;
67108;SDS011;54027;50.786;7.058;2023-08-30T09:56:41;4.10;;;2.30;;
67108;SDS011;54027;50.786;7.058;2023-08-30T09:59:07;4.00;;;2.47;;
67108;SDS011;54027;50.786;7.058;2023-08-30T10:01:36;3.95;;;2.50;;
67108;SDS011;54027;50.786;7.058;2023-08-30T10:04:01;7.10;;;3.10;;
67108;SDS011;54027;50.786;7.058;2023-08-30T10:06:28;4.15;;;2.40;;
67108;SDS011;54027;50.786;7.058;2023-08-30T10:08:55;5.70;;;2.47;;
67108;SDS011;54027;50.786;7.058;2023-08-30T10:11:21;5.80;;;2.53;;
67108;SDS011;54027;50.786;7.058;2023-08-30T10:13:48;4.45;;;2.35;;
67108;SDS011;54027;50.786;7.058;2023-08-30T10:16:18;3.55;;;2.38;;
67108;SDS011;54027;50.786;7.058;2023-08-30T10:18:47;6.22;;;2.95;;
67108;SDS011;54027;50.786;7.058;2023-08-30T10:21:17;4.85;;;2.55;;
67108;SDS011;54027;50.786;7.058;2023-08-30T10:23:44;4.85;;;2.58;;
67108;SDS011;54027;50.786;7.058;2023-08-30T10:26:12;5.63;;;2.63;;
67108;SDS011;54027;50.786;7.058;2023-08-30T10:28:39;5.88;;;3.33;;
67108;SDS011;54027;50.786;7.058;2023-08-30T10:31:06;5.05;;;2.80;;
67108;SDS011;54027;50.786;7.058;2023-08-30T10:33:43;4.70;;;2.45;;
67108;SDS011;54027;50.786;7.058;2023-08-30T10:36:11;4.70;;;3.05;;
67108;SDS011;54027;50.786;7.058;2023-08-30T10:38:37;4.03;;;2.72;;
67108;SDS011;54027;50.786;7.058;2023-08-30T10:41:08;2.53;;;2.30;;
67108;SDS011;54027;50.786;7.058;2023-08-30T10:43:35;7.55;;;2.78;;
67108;SDS011;54027;50.786;7.058;2023-08-30T10:46:03;4.60;;;2.53;;
67108;SDS011;54027;50.786;7.058;2023-08-30T10:48:40;4.78;;;2.15;;
67108;SDS011;54027;50.786;7.058;2023-08-30T10:51:15;9.35;;;2.30;;
67108;SDS011;54027;50.786;7.058;2023-08-30T10:53:55;7.55;;;2.50;;
67108;SDS011;54027;50.786;7.058;2023-08-30T10:56:27;3.60;;;2.03;;
67108;SDS011;54027;50.786;7.058;2023-08-30T10:58:54;3.72;;;2.20;;
67108;SDS011;54027;50.786;7.058;2023-08-30T11:01:19;3.30;;;2.20;;
67108;SDS011;54027;50.786;7.058;2023-08-30T11:03:45;3.53;;;2.10;;
67108;SDS011;54027;50.786;7.058;2023-08-30T11:06:14;3.45;;;1.90;;
67108;SDS011;54027;50.786;7.058;2023-08-30T11:08:39;3.35;;;1.73;;
67108;SDS011;54027;50.786;7.058;2023-08-30T11:11:06;5.00;;;1.50;;
67108;SDS011;54027;50.786;7.058;2023-08-30T11:13:34;4.60;;;1.95;;
67108;SDS011;54027;50.786;7.058;2023-08-30T11:16:00;4.15;;;1.80;;
67108;SDS011;54027;50.786;7.058;2023-08-30T11:18:27;4.20;;;1.88;;
67108;SDS011;54027;50.786;7.058;2023-08-30T11:20:53;3.03;;;1.80;;
67108;SDS011;54027;50.786;7.058;2023-08-30T11:23:24;3.75;;;1.73;;
67108;SDS011;54027;50.786;7.058;2023-08-30T11:25:50;4.07;;;1.90;;
67108;SDS011;54027;50.786;7.058;2023-08-30T11:28:21;4.35;;;1.92;;
67108;SDS011;54027;50.786;7.058;2023-08-30T11:30:47;4.38;;;1.80;;
67108;SDS011;54027;50.786;7.058;2023-08-30T11:33:12;4.13;;;1.92;;
67108;SDS011;54027;50.786;7.058;2023-08-30T11:35:38;4.82;;;2.17;;
67108;SDS011;54027;50.786;7.058;2023-08-30T11:38:03;3.85;;;1.85;;
67108;SDS011;54027;50.786;7.058;2023-08-30T11:40:29;4.82;;;2.15;;
67108;SDS011;54027;50.786;7.058;2023-08-30T11:42:57;4.45;;;2.20;;
67108;SDS011;54027;50.786;7.058;2023-08-30T11:45:22;3.80;;;2.13;;
67108;SDS011;54027;50.786;7.058;2023-08-30T11:47:48;3.28;;;1.92;;
67108;SDS011;54027;50.786;7.058;2023-08-30T11:50:13;3.08;;;2.33;;
67108;SDS011;54027;50.786;7.058;2023-08-30T11:52:39;4.63;;;2.38;;
67108;SDS011;54027;50.786;7.058;2023-08-30T11:55:05;5.32;;;2.17;;
67108;SDS011;54027;50.786;7.058;2023-08-30T11:57:38;5.50;;;2.38;;
67108;SDS011;54027;50.786;7.058;2023-08-30T12:00:08;6.55;;;2.70;;
67108;SDS011;54027;50.786;7.058;2023-08-30T12:02:35;4.80;;;2.83;;
67108;SDS011;54027;50.786;7.058;2023-08-30T12:05:00;3.88;;;2.60;;
67108;SDS011;54027;50.786;7.058;2023-08-30T12:07:26;4.75;;;2.88;;
67108;SDS011;54027;50.786;7.058;2023-08-30T12:09:51;4.28;;;2.80;;
67108;SDS011;54027;50.786;7.058;2023-08-30T12:12:17;4.90;;;2.80;;
67108;SDS011;54027;50.786;7.058;2023-08-30T12:14:42;4.30;;;2.42;;
67108;SDS011;54027;50.786;7.058;2023-08-30T12:17:08;4.22;;;3.00;;
67108;SDS011;54027;50.786;7.058;2023-08-30T12:19:36;7.43;;;2.72;;
67108;SDS011;54027;50.786;7.058;2023-08-30T12:22:04;4.95;;;2.92;;
67108;SDS011;54027;50.786;7.058;2023-08-30T12:24:43;5.03;;;2.95;;
67108;SDS011;54027;50.786;7.058;2023-08-30T12:27:09;6.55;;;2.60;;
67108;SDS011;54027;50.786;7.058;2023-08-30T12:29:35;6.15;;;3.58;;
67108;SDS011;54027;50.786;7.058;2023-08-30T12:32:00;7.15;;;3.10;;
67108;SDS011;54027;50.786;7.058;2023-08-30T12:34:26;6.55;;;3.20;;
67108;SDS011;54027;50.786;7.058;2023-08-30T12:36:51;5.88;;;3.13;;
67108;SDS011;54027;50.786;7.058;2023-08-30T12:39:16;5.13;;;2.83;;
67108;SDS011;54027;50.786;7.058;2023-08-30T12:41:42;5.57;;;3.60;;
67108;SDS011;54027;50.786;7.058;2023-08-30T12:44:07;4.53;;;3.65;;
67108;SDS011;54027;50.786;7.058;2023-08-30T12:46:33;5.10;;;3.47;;
67108;SDS011;54027;50.786;7.058;2023-08-30T12:48:58;6.03;;;3.33;;
67108;SDS011;54027;50.786;7.058;2023-08-30T12:51:24;6.15;;;4.18;;
67108;SDS011;54027;50.786;7.058;2023-08-30T12:53:49;7.63;;;4.55;;
67108;SDS011;54027;50.786;7.058;2023-08-30T12:56:14;8.70;;;4.65;;
67108;SDS011;54027;50.786;7.058;2023-08-30T12:58:40;7.13;;;4.32;;
67108;SDS011;54027;50.786;7.058;2023-08-30T13:01:05;7.68;;;4.82;;
67108;SDS011;54027;50.786;7.058;2023-08-30T13:03:30;8.50;;;4.60;;
67108;SDS011;54027;50.786;7.058;2023-08-30T13:05:56;5.22;;;3.67;;
67108;SDS011;54027;50.786;7.058;2023-08-30T13:08:23;6.45;;;3.80;;
67108;SDS011;54027;50.786;7.058;2023-08-30T13:10:49;5.97;;;3.67;;
67108;SDS011;54027;50.786;7.058;2023-08-30T13:13:14;4.90;;;3.20;;
67108;SDS011;54027;50.786;7.058;2023-08-30T13:15:40;7.03;;;3.20;;
67108;SDS011;54027;50.786;7.058;2023-08-30T13:18:05;6.15;;;3.28;;
67108;SDS011;54027;50.786;7.058;2023-08-30T13:20:30;6.32;;;2.97;;
67108;SDS011;54027;50.786;7.058;2023-08-30T13:22:56;4.93;;;2.88;;
67108;SDS011;54027;50.786;7.058;2023-08-30T13:25:21;3.95;;;3.00;;
67108;SDS011;54027;50.786;7.058;2023-08-30T13:27:47;4.95;;;3.33;;
67108;SDS011;54027;50.786;7.058;2023-08-30T13:30:12;4.57;;;3.20;;
67108;SDS011;54027;50.786;7.058;2023-08-30T13:32:38;5.15;;;3.80;;
67108;SDS011;54027;50.786;7.058;2023-08-30T13:35:03;6.13;;;3.72;;
67108;SDS011;54027;50.786;7.058;2023-08-30T13:37:29;7.38;;;3.72;;
67108;SDS011;54027;50.786;7.058;2023-08-30T13:39:54;5.15;;;3.95;;
67108;SDS011;54027;50.786;7.058;2023-08-30T13:42:20;7.45;;;3.72;;
67108;SDS011;54027;50.786;7.058;2023-08-30T13:44:46;5.80;;;3.13;;
67108;SDS011;54027;50.786;7.058;2023-08-30T13:47:14;4.38;;;3.30;;
67108;SDS011;54027;50.786;7.058;2023-08-30T13:49:41;4.20;;;3.00;;
67108;SDS011;54027;50.786;7.058;2023-08-30T13:52:07;5.45;;;3.38;;
67108;SDS011;54027;50.786;7.058;2023-08-30T13:54:32;4.65;;;3.35;;
67108;SDS011;54027;50.786;7.058;2023-08-30T13:56:58;4.75;;;3.70;;
67108;SDS011;54027;50.786;7.058;2023-08-30T13:59:23;8.85;;;3.95;;
67108;SDS011;54027;50.786;7.058;2023-08-30T14:01:49;5.55;;;3.42;;
67108;SDS011;54027;50.786;7.058;2023-08-30T14:04:14;7.03;;;3.90;;
67108;SDS011;54027;50.786;7.058;2023-08-30T14:06:40;9.70;;;4.25;;
67108;SDS011;54027;50.786;7.058;2023-08-30T14:09:05;8.20;;;4.63;;
67108;SDS011;54027;50.786;7.058;2023-08-30T14:11:33;4.97;;;3.72;;
67108;SDS011;54027;50.786;7.058;2023-08-30T14:14:00;13.07;;;6.40;;
67108;SDS011;54027;50.786;7.058;2023-08-30T14:16:26;9.73;;;6.20;;
67108;SDS011;54027;50.786;7.058;2023-08-30T14:18:52;7.38;;;4.35;;
67108;SDS011;54027;50.786;7.058;2023-08-30T14:21:17;8.43;;;4.60;;
67108;SDS011;54027;50.786;7.058;2023-08-30T14:23:42;8.93;;;4.80;;
67108;SDS011;54027;50.786;7.058;2023-08-30T14:26:08;6.47;;;4.80;;
67108;SDS011;54027;50.786;7.058;2023-08-30T14:28:37;6.18;;;4.10;;
67108;SDS011;54027;50.786;7.058;2023-08-30T14:31:09;9.50;;;3.30;;
67108;SDS011;54027;50.786;7.058;2023-08-30T14:33:35;5.95;;;2.63;;
67108;SDS011;54027;50.786;7.058;2023-08-30T14:36:10;7.13;;;3.00;;
67108;SDS011;54027;50.786;7.058;2023-08-30T14:38:36;4.75;;;2.67;;
67108;SDS011;54027;50.786;7.058;2023-08-30T14:41:02;4.07;;;2.70;;
67108;SDS011;54027;50.786;7.058;2023-08-30T14:43:28;4.15;;;2.92;;
67108;SDS011;54027;50.786;7.058;2023-08-30T14:46:00;5.95;;;3.15;;
67108;SDS011;54027;50.786;7.058;2023-08-30T14:48:31;3.20;;;2.63;;